createdAt,value
2018-09-14T00:01:27.593Z,44.97
2018-09-14T00:03:56.181Z,47.70
2018-09-14T00:06:24.687Z,46.03
2018-09-14T00:08:53.156Z,41.43
2018-09-14T00:11:21.660Z,44.93
2018-09-14T00:13:50.096Z,45.70
2018-09-14T00:16:18.613Z,44.67
2018-09-14T00:18:47.220Z,44.70
2018-09-14T00:21:15.720Z,44.60
2018-09-14T00:23:44.159Z,42.50
2018-09-14T00:26:12.636Z,46.20
2018-09-14T00:28:41.077Z,44.07
2018-09-14T00:31:09.554Z,40.80
2018-09-14T00:33:38.985Z,50.63
2018-09-14T00:36:07.466Z,45.27
2018-09-14T00:38:35.956Z,46.93
2018-09-14T00:41:04.424Z,43.87
2018-09-14T00:43:32.904Z,41.57
2018-09-14T00:46:01.375Z,42.90
2018-09-14T00:48:29.840Z,43.17
2018-09-14T00:50:58.356Z,44.13
2018-09-14T00:53:26.840Z,42.00
2018-09-14T00:55:55.381Z,38.80
2018-09-14T00:58:23.928Z,48.40
2018-09-14T01:00:52.389Z,47.77
2018-09-14T01:03:21.196Z,44.87
2018-09-14T01:05:49.755Z,42.47
2018-09-14T01:08:18.232Z,44.83
2018-09-14T01:10:46.864Z,45.07
2018-09-14T01:13:15.350Z,42.50
2018-09-14T01:15:43.808Z,43.93
2018-09-14T01:18:12.274Z,46.40
2018-09-14T01:20:40.770Z,40.47
2018-09-14T01:23:09.329Z,46.17
2018-09-14T01:25:37.752Z,51.13
2018-09-14T01:28:06.267Z,44.33
2018-09-14T01:30:34.725Z,46.03
2018-09-14T01:33:03.198Z,42.53
2018-09-14T01:36:40.913Z,43.43
2018-09-14T01:39:11.307Z,37.00
2018-09-14T01:41:39.788Z,42.40
2018-09-14T01:44:08.892Z,36.40
2018-09-14T01:46:37.705Z,33.47
2018-09-14T01:49:06.770Z,32.53
2018-09-14T01:51:35.304Z,36.33
2018-09-14T01:54:04.005Z,33.33
2018-09-14T01:56:32.485Z,39.33
2018-09-14T01:59:01.109Z,42.00
2018-09-14T02:01:29.590Z,41.33
2018-09-14T02:03:58.385Z,39.60
2018-09-14T02:06:27.368Z,43.70
2018-09-14T02:08:56.391Z,35.53
2018-09-14T02:11:24.850Z,35.77
2018-09-14T02:13:53.428Z,41.83
2018-09-14T02:16:21.868Z,46.17
2018-09-14T02:18:50.345Z,39.87
2018-09-14T02:21:18.773Z,39.97
2018-09-14T02:23:47.232Z,42.27
2018-09-14T02:26:15.721Z,44.10
2018-09-14T02:28:44.178Z,35.67
2018-09-14T02:31:12.589Z,39.77
2018-09-14T02:33:41.014Z,38.80
2018-09-14T02:36:09.629Z,40.83
2018-09-14T02:38:38.056Z,42.83
2018-09-14T02:41:06.627Z,42.97
2018-09-14T02:43:35.197Z,38.10
2018-09-14T02:46:04.197Z,40.90
2018-09-14T02:48:32.688Z,38.60
2018-09-14T02:51:02.057Z,39.47
2018-09-14T02:53:30.566Z,42.63
2018-09-14T02:55:59.077Z,44.30
2018-09-14T02:58:27.504Z,43.63
2018-09-14T03:00:55.985Z,38.73
2018-09-14T03:03:24.420Z,43.40
2018-09-14T03:05:52.920Z,39.67
2018-09-14T03:08:21.349Z,40.00
2018-09-14T03:10:49.901Z,34.87
2018-09-14T03:13:18.328Z,41.80
2018-09-14T03:15:46.864Z,42.10
2018-09-14T03:18:15.340Z,36.90
2018-09-14T03:20:43.913Z,41.53
2018-09-14T03:23:12.347Z,44.20
2018-09-14T03:25:41.195Z,39.90
2018-09-14T03:28:09.666Z,34.77
2018-09-14T03:30:38.139Z,38.53
2018-09-14T03:33:06.673Z,32.90
2018-09-14T03:35:35.198Z,38.30
2018-09-14T03:38:03.626Z,38.10
2018-09-14T03:40:32.081Z,35.03
2018-09-14T03:43:00.568Z,34.50
2018-09-14T03:45:29.069Z,39.30
2018-09-14T03:47:57.504Z,47.10
2018-09-14T03:50:25.968Z,43.93
2018-09-14T03:52:54.445Z,37.57
2018-09-14T03:55:23.025Z,38.43
2018-09-14T03:57:51.496Z,40.73
2018-09-14T04:00:20.089Z,39.90
2018-09-14T04:02:48.636Z,49.40
2018-09-14T04:05:17.163Z,40.20
2018-09-14T04:07:45.699Z,39.07
2018-09-14T04:10:14.121Z,41.40
2018-09-14T04:12:42.580Z,36.60
2018-09-14T04:15:11.069Z,34.33
2018-09-14T04:17:39.547Z,38.27
2018-09-14T04:20:08.073Z,37.43
2018-09-14T04:22:36.542Z,40.70
2018-09-14T04:25:05.085Z,36.60
2018-09-14T04:27:33.601Z,32.43
2018-09-14T04:30:02.182Z,39.77
2018-09-14T04:32:30.608Z,44.63
2018-09-14T04:34:59.668Z,76.53
2018-09-14T04:37:28.353Z,68.77
2018-09-14T04:39:56.803Z,81.30
2018-09-14T04:42:25.345Z,90.47
2018-09-14T04:44:53.856Z,81.47
2018-09-14T04:47:22.284Z,78.53
2018-09-14T04:49:50.896Z,77.07
2018-09-14T04:52:19.419Z,80.73
2018-09-14T04:54:47.890Z,64.20
2018-09-14T04:57:16.427Z,64.10
2018-09-14T04:59:44.871Z,63.93
2018-09-14T05:02:13.322Z,56.60
2018-09-14T05:04:41.785Z,63.80
2018-09-14T05:07:10.801Z,59.47
2018-09-14T05:09:39.297Z,58.93
2018-09-14T05:12:07.748Z,46.50
2018-09-14T05:14:36.861Z,55.43
2018-09-14T05:17:05.536Z,56.70
2018-09-14T05:19:34.079Z,49.97
2018-09-14T05:22:02.592Z,48.73
2018-09-14T05:24:34.207Z,50.80
2018-09-14T05:27:02.670Z,51.50
2018-09-14T05:29:31.272Z,44.53
2018-09-14T05:34:59.329Z,44.20
2018-09-14T05:37:27.973Z,44.67
2018-09-14T05:39:56.580Z,46.67
2018-09-14T05:42:25.039Z,49.67
2018-09-14T05:44:53.708Z,49.63
2018-09-14T05:47:22.105Z,43.03
2018-09-14T05:49:51.557Z,47.70
2018-09-14T05:52:20.137Z,48.27
2018-09-14T05:54:49.282Z,46.23
2018-09-14T05:57:17.765Z,51.30
2018-09-14T05:59:46.840Z,57.13
2018-09-14T06:02:15.494Z,58.73
2018-09-14T06:04:44.525Z,61.73
2018-09-14T06:07:12.956Z,59.00
2018-09-14T06:09:41.480Z,52.87
2018-09-14T06:12:10.059Z,63.20
2018-09-14T06:14:38.610Z,54.93
2018-09-14T06:17:07.147Z,63.23
2018-09-14T06:19:35.592Z,57.50
2018-09-14T06:22:04.100Z,59.93
2018-09-14T06:24:32.692Z,58.67
2018-09-14T06:27:01.130Z,57.77
2018-09-14T06:29:29.639Z,52.60
2018-09-14T06:31:58.094Z,54.57
2018-09-14T06:34:26.609Z,56.80
2018-09-14T06:36:55.131Z,55.60
2018-09-14T06:39:23.625Z,63.40
2018-09-14T06:41:52.110Z,51.90
2018-09-14T06:44:20.578Z,51.27
2018-09-14T06:46:49.031Z,54.37
2018-09-14T06:49:17.516Z,51.20
2018-09-14T06:51:45.965Z,52.17
2018-09-14T06:54:15.057Z,42.60
2018-09-14T06:56:43.441Z,51.73
2018-09-14T06:59:11.929Z,46.03
2018-09-14T07:01:40.483Z,48.00
2018-09-14T07:04:09.020Z,53.00
2018-09-14T07:06:37.567Z,53.20
2018-09-14T07:09:07.790Z,44.03
2018-09-14T07:11:36.297Z,43.87
2018-09-14T07:14:04.757Z,48.47
2018-09-14T07:16:33.407Z,43.90
2018-09-14T07:19:01.958Z,50.23
2018-09-14T07:21:30.460Z,49.97
2018-09-14T07:23:58.881Z,45.50
2018-09-14T07:26:27.338Z,41.60
2018-09-14T07:28:56.379Z,43.60
2018-09-14T07:31:25.541Z,44.77
2018-09-14T07:33:54.005Z,49.90
2018-09-14T07:36:22.584Z,44.47
2018-09-14T07:38:51.116Z,46.77
2018-09-14T07:41:19.561Z,43.80
2018-09-14T07:43:48.022Z,39.17
2018-09-14T07:46:16.521Z,52.03
2018-09-14T07:48:44.968Z,51.13
2018-09-14T07:51:13.543Z,47.63
2018-09-14T07:53:42.041Z,45.40
2018-09-14T07:56:10.569Z,46.17
2018-09-14T07:58:39.097Z,40.80
2018-09-14T08:01:07.574Z,43.10
2018-09-14T08:03:36.178Z,62.97
2018-09-14T08:06:04.709Z,42.90
2018-09-14T08:08:33.127Z,44.40
2018-09-14T08:11:01.913Z,37.60
2018-09-14T08:13:30.453Z,37.53
2018-09-14T08:15:59.925Z,46.77
2018-09-14T08:18:29.317Z,32.97
2018-09-14T08:20:57.787Z,30.67
2018-09-14T08:23:26.208Z,36.50
2018-09-14T08:25:54.915Z,36.07
2018-09-14T08:28:23.373Z,39.03
2018-09-14T08:30:51.874Z,36.27
2018-09-14T08:33:20.357Z,24.50
2018-09-14T08:35:48.844Z,29.03
2018-09-14T08:38:17.690Z,32.07
2018-09-14T08:40:46.174Z,30.20
2018-09-14T08:43:14.598Z,29.00
2018-09-14T08:45:43.138Z,25.33
2018-09-14T08:48:11.601Z,32.97
2018-09-14T08:50:40.052Z,30.43
2018-09-14T08:53:08.529Z,26.87
2018-09-14T08:55:37.021Z,37.43
2018-09-14T08:58:06.080Z,29.13
2018-09-14T09:00:34.557Z,30.53
2018-09-14T09:03:03.074Z,34.17
2018-09-14T09:05:31.565Z,32.23
2018-09-14T09:08:00.078Z,35.80
2018-09-14T09:10:29.288Z,33.20
2018-09-14T09:12:57.733Z,30.20
2018-09-14T09:15:26.377Z,29.80
2018-09-14T09:17:54.839Z,24.10
2018-09-14T09:20:23.390Z,28.00
2018-09-14T09:22:51.942Z,30.07
2018-09-14T09:25:20.410Z,28.63
2018-09-14T09:27:48.859Z,27.37
2018-09-14T09:30:17.382Z,30.60
2018-09-14T09:32:45.878Z,24.10
2018-09-14T09:35:14.397Z,33.90
2018-09-14T09:37:42.920Z,29.50
2018-09-14T09:40:11.390Z,28.23
2018-09-14T09:42:39.859Z,31.83
2018-09-14T09:45:08.411Z,28.00
2018-09-14T09:47:36.883Z,28.77
2018-09-14T09:50:05.687Z,26.97
2018-09-14T09:52:34.298Z,27.80
2018-09-14T09:55:02.930Z,28.53
2018-09-14T09:57:31.461Z,24.87
2018-09-14T09:59:59.952Z,28.97
2018-09-14T10:02:33.475Z,28.23
2018-09-14T10:05:07.379Z,23.93
2018-09-14T10:07:35.879Z,25.63
2018-09-14T10:10:04.462Z,19.30
2018-09-14T10:12:32.927Z,19.47
2018-09-14T10:15:01.796Z,22.03
2018-09-14T10:17:30.537Z,17.77
2018-09-14T10:19:59.047Z,16.83
2018-09-14T10:22:28.427Z,16.20
2018-09-14T10:24:56.868Z,17.60
2018-09-14T10:27:25.333Z,18.63
2018-09-14T10:29:53.797Z,19.90
2018-09-14T10:32:22.349Z,15.40
2018-09-14T10:34:50.973Z,18.00
2018-09-14T10:37:19.449Z,18.93
2018-09-14T10:39:47.985Z,20.17
2018-09-14T10:42:16.548Z,16.27
2018-09-14T10:44:45.094Z,16.80
2018-09-14T10:47:13.735Z,16.70
2018-09-14T10:49:42.193Z,15.83
2018-09-14T10:52:10.643Z,17.10
2018-09-14T10:54:39.512Z,16.97
2018-09-14T10:57:07.893Z,15.30
2018-09-14T10:59:36.388Z,17.03
2018-09-14T11:02:04.967Z,19.13
2018-09-14T11:04:33.601Z,21.47
2018-09-14T11:07:02.186Z,15.37
2018-09-14T11:09:30.601Z,14.70
2018-09-14T11:11:59.097Z,15.33
2018-09-14T11:14:27.531Z,13.70
2018-09-14T11:16:56.169Z,13.97
2018-09-14T11:19:24.641Z,15.43
2018-09-14T11:21:53.147Z,14.13
2018-09-14T11:24:21.757Z,10.03
2018-09-14T11:26:50.303Z,10.97
2018-09-14T11:29:18.758Z,16.10
2018-09-14T11:31:47.218Z,11.40
2018-09-14T11:34:15.710Z,13.00
2018-09-14T11:36:44.244Z,12.97
2018-09-14T11:39:12.742Z,13.50
2018-09-14T11:41:42.242Z,15.50
2018-09-14T11:44:10.728Z,12.00
2018-09-14T11:46:39.215Z,13.17
2018-09-14T11:49:07.729Z,12.00
2018-09-14T11:51:36.204Z,15.07
2018-09-14T11:54:06.440Z,10.10
2018-09-14T11:56:35.045Z,10.57
2018-09-14T11:59:03.540Z,11.00
2018-09-14T12:01:32.121Z,11.90
2018-09-14T12:04:01.253Z,11.83
2018-09-14T12:06:30.084Z,8.73
2018-09-14T12:08:58.529Z,11.60
2018-09-14T12:11:26.997Z,11.27
2018-09-14T12:13:55.692Z,13.80
2018-09-14T12:16:24.224Z,10.97
2018-09-14T12:18:52.692Z,13.73
2018-09-14T12:21:21.217Z,9.60
2018-09-14T12:23:49.673Z,12.80
2018-09-14T12:26:18.141Z,11.57
2018-09-14T12:28:46.650Z,10.37
2018-09-14T12:31:15.098Z,14.67
2018-09-14T12:33:43.620Z,16.33
2018-09-14T12:36:12.078Z,14.17
2018-09-14T12:38:40.532Z,12.67
2018-09-14T12:41:09.001Z,10.43
2018-09-14T12:43:37.477Z,11.40
2018-09-14T12:46:06.133Z,11.63
2018-09-14T12:48:34.698Z,11.87
2018-09-14T12:51:03.213Z,12.33
2018-09-14T12:53:31.739Z,14.47
2018-09-14T12:56:00.237Z,13.13
2018-09-14T12:58:28.659Z,10.90
2018-09-14T13:00:57.661Z,10.13
2018-09-14T13:03:26.110Z,10.03
2018-09-14T13:05:55.291Z,11.73
2018-09-14T13:08:23.865Z,10.70
2018-09-14T13:10:52.861Z,10.50
2018-09-14T13:13:21.323Z,7.83
2018-09-14T13:15:49.988Z,11.80
2018-09-14T13:18:18.500Z,9.93
2018-09-14T13:20:47.021Z,8.93
2018-09-14T13:23:15.486Z,11.43
2018-09-14T13:25:43.933Z,10.30
2018-09-14T13:28:12.386Z,8.87
2018-09-14T13:30:40.864Z,7.57
2018-09-14T13:33:09.389Z,9.67
2018-09-14T13:35:37.869Z,7.67
2018-09-14T13:38:06.306Z,9.13
2018-09-14T13:40:34.849Z,8.30
2018-09-14T13:43:03.339Z,9.03
2018-09-14T13:45:31.940Z,12.90
2018-09-14T13:48:00.417Z,14.00
2018-09-14T13:50:28.874Z,6.50
2018-09-14T13:52:57.662Z,6.33
2018-09-14T13:55:25.989Z,5.47
2018-09-14T13:57:54.433Z,7.17
2018-09-14T14:00:22.928Z,6.77
2018-09-14T14:02:51.445Z,9.10
2018-09-14T14:05:19.998Z,6.87
2018-09-14T14:07:48.489Z,7.17
2018-09-14T14:10:16.971Z,9.23
2018-09-14T14:12:45.481Z,6.33
2018-09-14T14:15:13.944Z,13.50
2018-09-14T14:17:42.500Z,6.83
2018-09-14T14:20:10.892Z,12.90
2018-09-14T14:22:39.510Z,8.70
2018-09-14T14:25:08.004Z,7.63
2018-09-14T14:27:36.534Z,11.83
2018-09-14T14:30:05.121Z,7.07
2018-09-14T14:32:33.699Z,8.20
2018-09-14T14:35:02.217Z,8.73
2018-09-14T14:37:31.149Z,9.13
2018-09-14T14:39:59.905Z,10.07
2018-09-14T14:42:28.472Z,9.77
2018-09-14T14:44:57.236Z,10.80
2018-09-14T14:47:25.665Z,12.40
2018-09-14T14:49:54.210Z,13.10
2018-09-14T14:52:22.738Z,12.80
2018-09-14T14:54:51.258Z,13.60
2018-09-14T14:57:19.710Z,11.53
2018-09-14T14:59:48.184Z,9.50
2018-09-14T15:02:16.639Z,9.67
2018-09-14T15:04:45.209Z,12.97
2018-09-14T15:07:13.714Z,11.63
2018-09-14T15:09:42.256Z,9.27
2018-09-14T15:12:11.591Z,8.57
2018-09-14T15:14:40.117Z,9.00
2018-09-14T15:17:08.569Z,14.10
2018-09-14T15:19:37.264Z,9.47
2018-09-14T15:22:05.871Z,10.70
2018-09-14T15:24:34.320Z,11.93
2018-09-14T15:27:02.912Z,11.90
2018-09-14T15:29:31.506Z,10.60
2018-09-14T15:32:00.049Z,10.70
2018-09-14T15:34:28.534Z,13.40
2018-09-14T15:36:57.014Z,9.03
2018-09-14T15:39:25.561Z,11.30
2018-09-14T15:41:54.146Z,10.00
2018-09-14T15:44:22.681Z,10.10
2018-09-14T15:46:51.240Z,12.30
2018-09-14T15:49:19.783Z,13.47
2018-09-14T15:51:48.248Z,10.77
2018-09-14T15:54:16.710Z,15.00
2018-09-14T15:56:45.321Z,10.30
2018-09-14T15:59:13.772Z,11.30
2018-09-14T16:01:42.314Z,14.10
2018-09-14T16:04:10.855Z,13.40
2018-09-14T16:06:39.587Z,15.80
2018-09-14T16:09:09.688Z,13.43
2018-09-14T16:11:38.449Z,12.27
2018-09-14T16:14:07.352Z,12.70
2018-09-14T16:16:35.868Z,10.97
2018-09-14T16:19:05.035Z,12.67
2018-09-14T16:21:33.489Z,10.37
2018-09-14T16:24:02.277Z,15.20
2018-09-14T16:26:30.833Z,14.33
2018-09-14T16:28:59.323Z,10.87
2018-09-14T16:31:27.909Z,17.13
2018-09-14T16:33:56.498Z,14.30
2018-09-14T16:36:25.611Z,10.73
2018-09-14T16:38:54.232Z,11.10
2018-09-14T16:41:22.777Z,16.07
2018-09-14T16:43:51.253Z,12.60
2018-09-14T16:46:19.697Z,13.57
2018-09-14T16:48:48.251Z,12.73
2018-09-14T16:51:16.738Z,12.47
2018-09-14T16:53:45.216Z,12.93
2018-09-14T16:56:13.698Z,11.50
2018-09-14T16:58:42.275Z,10.13
2018-09-14T17:01:10.785Z,13.43
2018-09-14T17:03:39.255Z,10.53
2018-09-14T17:06:07.962Z,8.60
2018-09-14T17:08:37.307Z,8.80
2018-09-14T17:11:06.001Z,9.70
2018-09-14T17:13:34.462Z,10.27
2018-09-14T17:16:02.999Z,10.83
2018-09-14T17:18:31.507Z,10.30
2018-09-14T17:21:00.084Z,9.27
2018-09-14T17:23:28.584Z,9.60
2018-09-14T17:25:57.305Z,10.03
2018-09-14T17:28:25.871Z,11.43
2018-09-14T17:30:54.345Z,13.03
2018-09-14T17:33:22.929Z,10.30
2018-09-14T17:35:51.410Z,10.33
2018-09-14T17:38:19.953Z,13.33
2018-09-14T17:40:48.405Z,14.33
2018-09-14T17:43:16.937Z,13.17
2018-09-14T17:45:45.465Z,12.60
2018-09-14T17:48:13.974Z,10.60
2018-09-14T17:50:42.548Z,10.97
2018-09-14T17:53:11.091Z,10.33
2018-09-14T17:55:39.728Z,12.13
2018-09-14T17:58:08.167Z,11.50
2018-09-14T18:00:36.641Z,15.30
2018-09-14T18:03:05.757Z,11.93
2018-09-14T18:05:34.470Z,11.20
2018-09-14T18:08:03.109Z,11.70
2018-09-14T18:10:31.573Z,8.70
2018-09-14T18:13:00.202Z,10.77
2018-09-14T18:15:28.672Z,11.23
2018-09-14T18:17:57.149Z,10.77
2018-09-14T18:20:25.619Z,13.13
2018-09-14T18:22:54.090Z,11.80
2018-09-14T18:25:22.736Z,12.30
2018-09-14T18:27:51.821Z,11.63
2018-09-14T18:30:21.231Z,11.20
2018-09-14T18:32:49.828Z,11.30
2018-09-14T18:35:18.353Z,17.23
2018-09-14T18:37:48.855Z,15.77
2018-09-14T18:40:17.348Z,15.80
2018-09-14T18:42:45.889Z,18.73
2018-09-14T18:45:14.343Z,17.43
2018-09-14T18:47:42.984Z,18.37
2018-09-14T18:50:11.658Z,19.17
2018-09-14T18:52:40.366Z,15.73
2018-09-14T18:55:08.895Z,21.47
2018-09-14T18:57:37.378Z,16.17
2018-09-14T19:00:06.922Z,17.20
2018-09-14T19:02:35.442Z,17.30
2018-09-14T19:05:03.993Z,17.23
2018-09-14T19:07:32.629Z,19.17
2018-09-14T19:10:01.290Z,19.53
2018-09-14T19:12:29.803Z,18.30
2018-09-14T19:14:58.410Z,20.10
2018-09-14T19:17:26.941Z,16.17
2018-09-14T19:19:55.422Z,17.63
2018-09-14T19:22:23.880Z,19.93
2018-09-14T19:24:52.332Z,21.80
2018-09-14T19:27:20.877Z,20.23
2018-09-14T19:29:49.396Z,22.40
2018-09-14T19:32:17.925Z,18.53
2018-09-14T19:34:46.464Z,20.23
2018-09-14T19:37:14.962Z,21.90
2018-09-14T19:39:43.556Z,23.70
2018-09-14T19:42:12.164Z,22.77
2018-09-14T19:44:40.767Z,21.27
2018-09-14T19:47:09.241Z,21.03
2018-09-14T19:49:37.753Z,20.13
2018-09-14T19:52:06.450Z,16.47
2018-09-14T19:54:34.984Z,19.23
2018-09-14T19:57:03.462Z,23.87
2018-09-14T19:59:31.936Z,24.63
2018-09-14T20:02:00.406Z,26.53
2018-09-14T20:04:28.942Z,23.23
2018-09-14T20:06:57.416Z,24.00
2018-09-14T20:09:25.968Z,22.17
2018-09-14T20:11:54.544Z,24.47
2018-09-14T20:14:23.811Z,22.07
2018-09-14T20:16:52.352Z,22.97
2018-09-14T20:19:21.107Z,26.50
2018-09-14T20:21:49.891Z,24.53
2018-09-14T20:24:18.398Z,24.43
2018-09-14T20:26:46.860Z,23.37
2018-09-14T20:29:15.373Z,22.77
2018-09-14T20:31:44.127Z,24.90
2018-09-14T20:34:12.607Z,24.90
2018-09-14T20:36:41.168Z,28.00
2018-09-14T20:39:12.026Z,22.83
2018-09-14T20:41:41.346Z,24.70
2018-09-14T20:44:09.864Z,30.87
2018-09-14T20:46:38.400Z,27.67
2018-09-14T20:49:07.589Z,29.30
2018-09-14T20:51:36.258Z,24.20
2018-09-14T20:54:05.536Z,25.63
2018-09-14T20:56:34.107Z,29.70
2018-09-14T20:59:02.629Z,27.23
2018-09-14T21:01:31.148Z,23.57
2018-09-14T21:03:59.676Z,25.57
2018-09-14T21:06:28.130Z,35.47
2018-09-14T21:08:56.665Z,27.07
2018-09-14T21:11:25.258Z,36.77
2018-09-14T21:13:53.892Z,27.87
2018-09-14T21:16:22.440Z,38.83
2018-09-14T21:18:51.684Z,32.93
2018-09-14T21:21:20.215Z,32.23
2018-09-14T21:23:48.825Z,23.00
2018-09-14T21:26:17.262Z,21.90
2018-09-14T21:28:45.915Z,29.37
2018-09-14T21:31:14.345Z,23.00
2018-09-14T21:33:42.937Z,25.03
2018-09-14T21:36:11.472Z,26.33
2018-09-14T21:38:40.701Z,23.93
2018-09-14T21:41:09.435Z,34.37
2018-09-14T21:43:37.912Z,23.97
2018-09-14T21:46:06.452Z,24.80
2018-09-14T21:48:35.083Z,24.60
2018-09-14T21:51:03.815Z,26.80
2018-09-14T21:53:32.423Z,21.77
2018-09-14T21:56:01.055Z,22.87
2018-09-14T21:58:29.652Z,25.53
2018-09-14T22:01:03.567Z,22.40
2018-09-14T22:03:31.991Z,25.70
2018-09-14T22:06:00.560Z,32.77
2018-09-14T22:08:29.077Z,27.13
2018-09-14T22:10:57.571Z,23.60
2018-09-14T22:13:26.013Z,23.93
2018-09-14T22:15:55.469Z,26.07
2018-09-14T22:18:23.966Z,25.93
2018-09-14T22:20:53.009Z,21.33
2018-09-14T22:23:22.681Z,25.43
2018-09-14T22:25:51.360Z,19.50
2018-09-14T22:28:19.784Z,24.90
2018-09-14T22:30:48.276Z,19.90
2018-09-14T22:33:16.808Z,21.10
2018-09-14T22:35:45.760Z,20.53
2018-09-14T22:38:14.956Z,21.30
2018-09-14T22:40:43.547Z,27.30
2018-09-14T22:43:12.008Z,21.23
2018-09-14T22:45:41.224Z,19.80
2018-09-14T22:48:09.665Z,29.53
2018-09-14T22:50:38.088Z,22.93
2018-09-14T22:53:07.237Z,25.03
2018-09-14T22:55:35.692Z,28.63
2018-09-14T22:58:04.300Z,25.67
2018-09-14T23:00:42.397Z,21.60
2018-09-14T23:03:10.850Z,21.30
2018-09-14T23:05:39.416Z,28.97
2018-09-14T23:08:08.099Z,34.43
2018-09-14T23:10:36.627Z,23.40
2018-09-14T23:13:06.056Z,26.03
2018-09-14T23:15:34.557Z,24.37
2018-09-14T23:18:04.944Z,27.00
2018-09-14T23:20:33.385Z,31.40
2018-09-14T23:23:02.080Z,27.00
2018-09-14T23:25:30.538Z,28.50
2018-09-14T23:27:59.004Z,30.57
2018-09-14T23:30:27.430Z,30.30
2018-09-14T23:32:56.072Z,28.97
2018-09-14T23:35:25.737Z,26.50
2018-09-14T23:37:54.328Z,27.60
2018-09-14T23:40:22.800Z,27.40
2018-09-14T23:42:51.244Z,30.20
2018-09-14T23:45:20.618Z,27.87
2018-09-14T23:47:49.093Z,26.80
2018-09-14T23:50:17.602Z,34.60
2018-09-14T23:52:46.068Z,27.57
2018-09-14T23:55:14.548Z,28.27
2018-09-14T23:57:43.008Z,28.33
